createdAt,value
2023-02-02T00:00:59.940Z,-4.03
2023-02-02T00:03:31.801Z,-3.97
2023-02-02T00:06:04.248Z,-3.81
2023-02-02T00:08:36.161Z,-3.58
2023-02-02T00:11:07.008Z,-3.60
2023-02-02T00:13:37.578Z,-3.85
2023-02-02T00:16:39.792Z,-4.11
2023-02-02T00:19:12.033Z,-4.26
2023-02-02T00:21:43.137Z,-4.31
2023-02-02T00:24:15.655Z,-4.34
2023-02-02T00:26:47.355Z,-4.36
2023-02-02T00:29:19.952Z,-4.38
2023-02-02T00:31:54.671Z,-4.35
2023-02-02T00:34:26.344Z,-4.08
2023-02-02T00:36:56.940Z,-3.81
2023-02-02T00:39:29.873Z,-3.51
2023-02-02T00:42:00.391Z,-3.27
2023-02-02T00:44:43.273Z,-3.07
2023-02-02T00:47:17.063Z,-2.94
2023-02-02T00:49:47.544Z,-2.86
2023-02-02T00:52:18.339Z,-2.80
2023-02-02T00:54:48.973Z,-2.79
2023-02-02T00:57:19.638Z,-2.81
2023-02-02T00:59:50.253Z,-2.88
2023-02-02T01:02:25.220Z,-2.94
2023-02-02T01:04:55.941Z,-2.92
2023-02-02T01:07:26.821Z,-2.88
2023-02-02T01:09:57.498Z,-2.83
2023-02-02T01:12:28.392Z,-2.83
2023-02-02T01:14:58.929Z,-2.69
2023-02-02T01:17:32.144Z,-2.58
2023-02-02T01:20:02.809Z,-2.43
2023-02-02T01:22:34.316Z,-2.32
2023-02-02T01:25:05.239Z,-2.19
2023-02-02T01:27:35.899Z,-2.05
2023-02-02T01:30:07.127Z,-1.92
2023-02-02T01:32:40.379Z,-1.81
2023-02-02T01:35:11.396Z,-1.71
2023-02-02T01:37:42.556Z,-1.61
2023-02-02T01:40:15.503Z,-1.50
2023-02-02T01:42:46.158Z,-1.43
2023-02-02T01:45:29.274Z,-1.34
2023-02-02T01:48:03.753Z,-1.25
2023-02-02T01:50:37.652Z,-1.17
2023-02-02T01:53:10.486Z,-1.16
2023-02-02T01:55:42.848Z,-1.06
2023-02-02T01:58:21.167Z,-1.00
2023-02-02T02:00:52.718Z,-0.96
2023-02-02T02:03:29.264Z,-0.94
2023-02-02T02:06:03.670Z,-0.88
2023-02-02T02:08:38.332Z,-0.87
2023-02-02T02:11:09.223Z,-0.84
2023-02-02T02:13:54.642Z,-0.84
2023-02-02T02:16:35.252Z,-0.84
2023-02-02T02:19:29.315Z,-0.83
2023-02-02T02:22:18.717Z,-0.83
2023-02-02T02:25:34.891Z,-0.84
2023-02-02T02:28:26.375Z,-1.03
2023-02-02T02:31:34.071Z,-0.88
2023-02-02T02:34:13.334Z,-0.90
2023-02-02T02:36:52.708Z,-0.92
2023-02-02T02:39:30.000Z,-0.96
2023-02-02T02:42:05.957Z,-0.98
2023-02-02T02:44:38.184Z,-0.99
2023-02-02T02:47:09.512Z,-1.01
2023-02-02T02:49:49.321Z,-1.02
2023-02-02T02:52:19.914Z,-1.06
2023-02-02T02:54:53.841Z,-1.08
2023-02-02T02:57:55.045Z,-1.09
2023-02-02T03:00:45.422Z,-1.13
2023-02-02T03:03:26.216Z,-1.14
2023-02-02T03:06:08.364Z,-1.17
2023-02-02T03:08:43.082Z,-1.19
2023-02-02T03:11:16.190Z,-1.21
2023-02-02T03:13:49.146Z,-1.22
2023-02-02T03:16:19.888Z,-1.23
2023-02-02T03:18:50.686Z,-1.24
2023-02-02T03:21:23.919Z,-1.25
2023-02-02T03:23:55.060Z,-1.28
2023-02-02T03:26:25.794Z,-1.28
2023-02-02T03:28:58.627Z,-1.33
2023-02-02T03:31:30.890Z,-1.33
2023-02-02T03:34:01.488Z,-1.32
2023-02-02T03:36:34.713Z,-1.33
2023-02-02T03:39:05.450Z,-1.34
2023-02-02T03:41:36.099Z,-1.39
2023-02-02T03:44:06.730Z,-1.34
2023-02-02T03:46:37.354Z,-1.35
2023-02-02T03:49:08.157Z,-1.35
2023-02-02T03:51:41.582Z,-1.38
2023-02-02T03:54:12.146Z,-1.39
2023-02-02T03:56:42.743Z,-1.39
2023-02-02T03:59:13.356Z,-1.46
2023-02-02T04:01:43.997Z,-1.41
2023-02-02T04:04:14.662Z,-1.40
2023-02-02T04:06:47.853Z,-1.41
2023-02-02T04:09:18.507Z,-1.39
2023-02-02T04:11:49.028Z,-1.39
2023-02-02T04:14:19.809Z,-1.36
2023-02-02T04:16:50.336Z,-1.46
2023-02-02T04:19:21.057Z,-1.31
2023-02-02T04:21:54.480Z,-1.28
2023-02-02T04:24:25.058Z,-1.24
2023-02-02T04:26:55.596Z,-1.21
2023-02-02T04:29:26.545Z,-1.16
2023-02-02T04:31:58.044Z,-1.12
2023-02-02T04:34:28.609Z,-1.09
2023-02-02T04:37:02.634Z,-1.04
2023-02-02T04:39:33.382Z,-1.01
2023-02-02T04:42:03.923Z,-0.98
2023-02-02T04:44:34.568Z,-0.95
2023-02-02T04:47:05.046Z,-0.93
2023-02-02T04:49:35.596Z,-0.95
2023-02-02T04:52:09.232Z,-0.89
2023-02-02T04:54:39.893Z,-0.88
2023-02-02T04:57:10.433Z,-0.87
2023-02-02T04:59:42.493Z,-0.87
2023-02-02T05:02:13.159Z,-0.89
2023-02-02T05:04:43.748Z,-0.84
2023-02-02T05:07:17.080Z,-0.84
2023-02-02T05:09:47.607Z,-0.80
2023-02-02T05:12:18.049Z,-0.81
2023-02-02T05:14:48.758Z,-1.04
2023-02-02T05:17:19.344Z,-1.48
2023-02-02T05:19:49.924Z,-1.92
2023-02-02T05:22:23.088Z,-2.35
2023-02-02T05:24:53.719Z,-2.66
2023-02-02T05:27:24.301Z,-2.92
2023-02-02T05:29:55.012Z,-3.08
2023-02-02T05:32:25.538Z,-3.02
2023-02-02T05:34:56.061Z,-2.85
2023-02-02T05:37:29.218Z,-2.61
2023-02-02T05:39:59.733Z,-2.33
2023-02-02T05:42:30.293Z,-2.07
2023-02-02T05:45:00.868Z,-1.80
2023-02-02T05:47:31.454Z,-1.52
2023-02-02T05:50:02.783Z,-1.27
2023-02-02T05:52:38.680Z,-1.08
2023-02-02T05:55:10.354Z,-0.81
2023-02-02T05:57:40.879Z,-0.62
2023-02-02T06:00:13.239Z,-0.42
2023-02-02T06:02:43.911Z,-0.24
2023-02-02T06:05:14.708Z,-0.09
2023-02-02T06:07:47.773Z,0.05
2023-02-02T06:10:18.630Z,0.19
2023-02-02T06:12:49.163Z,0.32
2023-02-02T06:15:19.901Z,0.33
2023-02-02T06:17:50.568Z,0.55
2023-02-02T06:20:22.559Z,0.66
2023-02-02T06:22:55.755Z,0.74
2023-02-02T06:25:26.654Z,0.85
2023-02-02T06:27:59.261Z,0.94
2023-02-02T06:30:30.389Z,0.99
2023-02-02T06:33:03.703Z,1.06
2023-02-02T06:35:34.326Z,1.12
2023-02-02T06:38:07.481Z,1.16
2023-02-02T06:40:37.987Z,1.22
2023-02-02T06:43:09.289Z,1.30
2023-02-02T06:45:40.500Z,1.37
2023-02-02T06:48:11.520Z,1.45
2023-02-02T06:50:42.095Z,1.53
2023-02-02T06:53:16.181Z,1.60
2023-02-02T06:55:46.700Z,1.56
2023-02-02T06:58:17.160Z,1.78
2023-02-02T07:00:48.498Z,1.88
2023-02-02T07:03:19.121Z,1.99
2023-02-02T07:05:49.995Z,2.07
2023-02-02T07:08:23.191Z,2.11
2023-02-02T07:11:14.235Z,2.15
2023-02-02T07:13:44.328Z,2.17
2023-02-02T07:16:15.892Z,2.20
2023-02-02T07:18:47.827Z,2.26
2023-02-02T07:21:23.540Z,2.28
2023-02-02T07:23:56.761Z,2.33
2023-02-02T07:26:27.926Z,2.38
2023-02-02T07:28:58.700Z,2.54
2023-02-02T07:31:30.390Z,2.74
2023-02-02T07:34:02.037Z,2.98
2023-02-02T07:36:32.791Z,3.23
2023-02-02T07:39:07.937Z,3.42
2023-02-02T07:41:39.758Z,3.53
2023-02-02T07:44:19.319Z,3.62
2023-02-02T07:46:51.105Z,3.66
2023-02-02T07:49:22.392Z,3.71
2023-02-02T07:51:53.005Z,3.82
2023-02-02T07:54:26.309Z,3.98
2023-02-02T07:56:56.971Z,4.21
2023-02-02T07:59:27.499Z,4.42
2023-02-02T08:01:58.066Z,4.61
2023-02-02T08:04:28.630Z,4.80
2023-02-02T08:06:59.252Z,5.00
2023-02-02T08:09:33.296Z,5.12
2023-02-02T08:12:04.620Z,5.22
2023-02-02T08:14:35.568Z,5.26
2023-02-02T08:17:06.433Z,5.34
2023-02-02T08:19:37.083Z,5.47
2023-02-02T08:22:07.757Z,5.72
2023-02-02T08:24:43.145Z,5.87
2023-02-02T08:27:14.030Z,6.22
2023-02-02T08:29:44.559Z,6.45
2023-02-02T08:32:15.297Z,6.69
2023-02-02T08:34:45.841Z,6.87
2023-02-02T08:37:16.465Z,7.02
2023-02-02T08:39:49.558Z,7.15
2023-02-02T08:42:20.107Z,7.30
2023-02-02T08:46:01.139Z,7.47
2023-02-02T08:47:42.138Z,7.64
2023-02-02T08:50:14.314Z,7.78
2023-02-02T08:52:44.958Z,7.89
2023-02-02T08:55:18.294Z,7.96
2023-02-02T08:57:48.812Z,8.06
2023-02-02T09:00:22.794Z,8.12
2023-02-02T09:02:53.867Z,8.20
2023-02-02T09:05:24.656Z,8.23
2023-02-02T09:07:55.441Z,8.25
2023-02-02T09:10:32.229Z,8.33
2023-02-02T09:13:02.837Z,8.34
2023-02-02T09:15:33.756Z,8.35
2023-02-02T09:18:04.502Z,8.35
2023-02-02T09:20:35.063Z,8.35
2023-02-02T09:23:05.632Z,8.38
2023-02-02T09:25:38.789Z,8.39
2023-02-02T09:28:09.339Z,8.42
2023-02-02T09:30:39.849Z,8.43
2023-02-02T09:33:10.524Z,8.43
2023-02-02T09:35:41.318Z,8.42
2023-02-02T09:38:11.917Z,8.45
2023-02-02T09:40:45.103Z,8.47
2023-02-02T09:43:30.843Z,8.53
2023-02-02T09:46:14.009Z,8.53
2023-02-02T09:48:54.935Z,8.58
2023-02-02T09:51:29.051Z,8.46
2023-02-02T09:54:05.552Z,8.58
2023-02-02T09:56:43.733Z,8.57
2023-02-02T09:59:24.227Z,8.57
2023-02-02T10:01:59.284Z,8.59
2023-02-02T10:04:36.870Z,8.66
2023-02-02T10:07:13.041Z,8.71
2023-02-02T10:09:49.849Z,8.73
2023-02-02T10:12:33.248Z,8.79
2023-02-02T10:15:13.292Z,8.86
2023-02-02T10:17:50.291Z,8.92
2023-02-02T10:20:36.272Z,8.94
2023-02-02T10:23:16.804Z,8.95
2023-02-02T10:25:57.975Z,8.96
2023-02-02T10:28:44.268Z,8.96
2023-02-02T10:31:25.278Z,8.99
2023-02-02T10:34:07.233Z,9.05
2023-02-02T10:36:48.620Z,9.10
2023-02-02T10:39:26.789Z,9.10
2023-02-02T10:42:08.539Z,9.00
2023-02-02T10:44:51.074Z,9.09
2023-02-02T10:47:27.519Z,9.08
2023-02-02T10:50:06.356Z,9.14
2023-02-02T10:52:38.614Z,9.16
2023-02-02T10:55:18.641Z,9.22
2023-02-02T10:58:05.249Z,9.30
2023-02-02T11:00:43.819Z,9.37
2023-02-02T11:03:16.519Z,9.36
2023-02-02T11:05:59.505Z,9.40
2023-02-02T11:08:36.174Z,9.33
2023-02-02T11:11:15.107Z,9.44
2023-02-02T11:13:50.269Z,9.42
2023-02-02T11:16:41.311Z,9.41
2023-02-02T11:19:31.003Z,9.46
2023-02-02T11:22:04.085Z,9.55
2023-02-02T11:24:38.334Z,9.66
2023-02-02T11:27:16.345Z,9.78
2023-02-02T11:29:50.267Z,9.90
2023-02-02T11:32:30.969Z,9.99
2023-02-02T11:35:21.165Z,10.03
2023-02-02T11:38:01.458Z,9.99
2023-02-02T11:40:38.878Z,10.02
2023-02-02T11:43:20.651Z,10.01
2023-02-02T11:46:01.629Z,9.98
2023-02-02T11:48:40.646Z,9.96
2023-02-02T11:51:24.567Z,9.93
2023-02-02T11:54:06.317Z,9.96
2023-02-02T11:56:40.228Z,9.93
2023-02-02T11:59:31.857Z,9.91
2023-02-02T12:02:32.668Z,10.00
2023-02-02T12:05:39.895Z,10.04
2023-02-02T12:08:14.376Z,10.12
2023-02-02T12:10:50.088Z,10.18
2023-02-02T12:13:34.102Z,10.22
2023-02-02T12:16:18.785Z,10.27
2023-02-02T12:19:00.945Z,10.31
2023-02-02T12:21:41.739Z,10.26
2023-02-02T12:24:31.670Z,10.23
2023-02-02T12:27:22.777Z,10.18
2023-02-02T12:30:14.562Z,10.14
2023-02-02T12:33:03.596Z,10.05
2023-02-02T12:36:06.305Z,9.97
2023-02-02T12:39:00.704Z,9.87
2023-02-02T12:41:44.761Z,9.72
2023-02-02T12:44:26.512Z,9.57
2023-02-02T12:47:12.035Z,9.31
2023-02-02T12:49:58.995Z,9.00
2023-02-02T12:52:44.628Z,8.69
2023-02-02T12:55:28.603Z,8.38
2023-02-02T12:58:09.838Z,8.13
2023-02-02T13:00:59.913Z,7.77
2023-02-02T13:03:37.322Z,7.40
2023-02-02T13:06:28.967Z,7.15
2023-02-02T13:09:05.202Z,6.92
2023-02-02T13:11:45.981Z,6.73
2023-02-02T13:14:21.087Z,6.57
2023-02-02T13:16:56.495Z,6.47
2023-02-02T13:19:31.958Z,6.47
2023-02-02T13:22:05.364Z,6.41
2023-02-02T13:24:41.627Z,6.37
2023-02-02T13:27:21.248Z,6.34
2023-02-02T13:29:55.723Z,6.33
2023-02-02T13:32:33.432Z,6.29
2023-02-02T13:35:07.816Z,6.19
2023-02-02T13:37:45.889Z,6.19
2023-02-02T13:40:27.200Z,6.15
2023-02-02T13:43:11.525Z,6.13
2023-02-02T13:45:55.816Z,6.09
2023-02-02T13:48:36.118Z,6.04
2023-02-02T13:51:34.823Z,5.89
2023-02-02T13:54:37.521Z,5.75
2023-02-02T13:57:20.533Z,5.59
2023-02-02T14:00:15.717Z,5.44
2023-02-02T14:02:49.593Z,5.26
2023-02-02T14:05:27.593Z,5.16
2023-02-02T14:08:04.592Z,5.04
2023-02-02T14:10:38.889Z,4.91
2023-02-02T14:13:34.489Z,4.77
2023-02-02T14:16:10.555Z,4.65
2023-02-02T14:18:59.155Z,4.54
2023-02-02T14:21:59.443Z,4.42
2023-02-02T14:24:46.806Z,4.30
2023-02-02T14:27:57.920Z,4.20
2023-02-02T14:30:35.628Z,4.02
2023-02-02T14:33:47.691Z,3.89
2023-02-02T14:36:20.794Z,3.76
2023-02-02T14:39:09.869Z,3.62
2023-02-02T14:42:32.039Z,3.52
2023-02-02T14:45:18.595Z,3.38
2023-02-02T14:47:55.715Z,3.24
2023-02-02T14:50:36.339Z,3.16
2023-02-02T14:53:10.737Z,3.07
2023-02-02T14:55:55.485Z,2.97
2023-02-02T14:58:31.893Z,2.90
2023-02-02T15:01:13.847Z,2.81
2023-02-02T15:03:55.084Z,2.69
2023-02-02T15:06:36.926Z,2.61
2023-02-02T15:09:37.179Z,2.49
2023-02-02T15:12:31.053Z,2.43
2023-02-02T15:15:12.771Z,2.39
2023-02-02T15:18:03.485Z,2.35
2023-02-02T15:20:40.147Z,2.34
2023-02-02T15:23:25.472Z,2.31
2023-02-02T15:26:00.752Z,1.99
2023-02-02T15:28:41.961Z,1.48
2023-02-02T15:31:21.123Z,0.85
2023-02-02T15:33:54.988Z,0.41
2023-02-02T15:36:28.915Z,0.31
2023-02-02T15:39:06.266Z,0.29
2023-02-02T15:41:40.378Z,0.29
2023-02-02T15:44:21.904Z,0.28
2023-02-02T15:46:52.687Z,0.24
2023-02-02T15:49:34.709Z,0.22
2023-02-02T15:52:15.990Z,0.15
2023-02-02T15:54:58.347Z,0.02
2023-02-02T15:57:34.317Z,-0.09
2023-02-02T16:00:26.037Z,-0.06
2023-02-02T16:03:01.074Z,0.07
2023-02-02T16:05:47.601Z,0.17
2023-02-02T16:08:21.849Z,0.25
2023-02-02T16:11:05.976Z,0.30
2023-02-02T16:13:36.843Z,0.31
2023-02-02T16:16:09.728Z,0.23
2023-02-02T16:18:40.348Z,0.17
2023-02-02T16:21:21.930Z,0.13
2023-02-02T16:23:53.340Z,0.22
2023-02-02T16:26:32.059Z,0.34
2023-02-02T16:29:02.905Z,0.36
2023-02-02T16:31:33.738Z,0.38
2023-02-02T16:34:05.120Z,0.36
2023-02-02T16:36:35.733Z,0.34
2023-02-02T16:39:17.331Z,0.32
2023-02-02T16:41:50.964Z,0.28
2023-02-02T16:44:43.873Z,0.25
2023-02-02T16:47:39.068Z,0.22
2023-02-02T16:50:36.998Z,0.20
2023-02-02T16:53:09.063Z,0.23
2023-02-02T16:55:50.329Z,0.24
2023-02-02T16:58:26.534Z,0.23
2023-02-02T17:01:14.996Z,0.23
2023-02-02T17:03:55.142Z,0.17
2023-02-02T17:06:42.151Z,0.10
2023-02-02T17:09:34.549Z,-0.19
2023-02-02T17:12:19.440Z,-0.54
2023-02-02T17:15:05.227Z,-0.93
2023-02-02T17:17:36.125Z,-1.25
2023-02-02T17:20:08.570Z,-1.50
2023-02-02T17:22:42.786Z,-1.66
2023-02-02T17:25:18.020Z,-1.68
2023-02-02T17:27:49.793Z,-1.76
2023-02-02T17:30:23.583Z,-1.75
2023-02-02T17:32:54.253Z,-1.74
2023-02-02T17:35:28.678Z,-1.60
2023-02-02T17:38:03.239Z,-1.47
2023-02-02T17:40:33.908Z,-1.27
2023-02-02T17:43:06.472Z,-1.14
2023-02-02T17:45:40.279Z,-0.85
2023-02-02T17:48:14.437Z,-0.75
2023-02-02T17:50:46.203Z,-0.81
2023-02-02T17:53:18.651Z,-0.92
2023-02-02T17:55:51.665Z,-1.04
2023-02-02T17:58:22.649Z,-1.14
2023-02-02T18:00:59.468Z,-1.23
2023-02-02T18:03:34.246Z,-1.26
2023-02-02T18:06:06.015Z,-1.26
2023-02-02T18:08:36.923Z,-1.19
2023-02-02T18:11:07.902Z,-1.09
2023-02-02T18:13:38.615Z,-1.03
2023-02-02T18:16:12.882Z,-1.08
2023-02-02T18:18:43.723Z,-1.23
2023-02-02T18:21:15.752Z,-1.39
2023-02-02T18:23:46.500Z,-1.66
2023-02-02T18:26:20.540Z,-1.90
2023-02-02T18:28:53.560Z,-1.99
2023-02-02T18:31:27.317Z,-2.02
2023-02-02T18:33:58.161Z,-2.00
2023-02-02T18:36:28.955Z,-1.94
2023-02-02T18:39:00.021Z,-1.88
2023-02-02T18:41:31.482Z,-1.88
2023-02-02T18:44:02.280Z,-1.88
2023-02-02T18:46:36.510Z,-1.90
2023-02-02T18:49:07.166Z,-1.97
2023-02-02T18:51:37.995Z,-2.12
2023-02-02T18:54:08.795Z,-2.29
2023-02-02T18:56:39.830Z,-2.44
2023-02-02T18:59:10.797Z,-2.51
2023-02-02T19:01:44.422Z,-2.47
2023-02-02T19:04:15.524Z,-2.42
2023-02-02T19:06:58.643Z,-2.34
2023-02-02T19:09:30.007Z,-2.27
2023-02-02T19:12:01.000Z,-2.24
2023-02-02T19:14:37.026Z,-2.23
2023-02-02T19:17:24.692Z,-2.26
2023-02-02T19:19:55.810Z,-2.37
2023-02-02T19:22:31.352Z,-2.50
2023-02-02T19:25:02.073Z,-2.56
2023-02-02T19:27:33.093Z,-2.60
2023-02-02T19:30:06.108Z,-2.58
2023-02-02T19:32:47.262Z,-2.55
2023-02-02T19:35:22.648Z,-2.41
2023-02-02T19:37:56.260Z,-2.34
2023-02-02T19:40:28.238Z,-2.27
2023-02-02T19:43:02.493Z,-2.27
2023-02-02T19:45:35.790Z,-2.17
2023-02-02T19:48:17.904Z,-2.03
2023-02-02T19:50:49.312Z,-1.92
2023-02-02T19:53:23.378Z,-1.93
2023-02-02T19:55:54.873Z,-2.34
2023-02-02T19:58:28.525Z,-2.70
2023-02-02T20:01:00.424Z,-2.90
2023-02-02T20:03:46.756Z,-2.80
2023-02-02T20:06:25.638Z,-2.58
2023-02-02T20:08:56.680Z,-2.50
2023-02-02T20:11:32.698Z,-2.45
2023-02-02T20:14:03.983Z,-2.40
2023-02-02T20:16:41.037Z,-2.37
2023-02-02T20:19:20.309Z,-2.25
2023-02-02T20:21:53.604Z,-2.12
2023-02-02T20:24:27.572Z,-1.99
2023-02-02T20:27:03.777Z,-1.85
2023-02-02T20:29:43.447Z,-1.70
2023-02-02T20:32:26.012Z,-1.56
2023-02-02T20:35:01.078Z,-1.41
2023-02-02T20:37:32.650Z,-1.26
2023-02-02T20:40:05.314Z,-1.15
2023-02-02T20:42:35.989Z,-1.04
2023-02-02T20:45:06.932Z,-0.90
2023-02-02T20:47:37.509Z,-0.84
2023-02-02T20:50:12.153Z,-0.78
2023-02-02T20:52:42.776Z,-0.70
2023-02-02T20:55:14.036Z,-0.67
2023-02-02T20:57:44.605Z,-0.65
2023-02-02T21:00:21.772Z,-0.67
2023-02-02T21:02:52.883Z,-0.69
2023-02-02T21:05:26.515Z,-0.83
2023-02-02T21:07:57.545Z,-1.09
2023-02-02T21:10:29.464Z,-1.22
2023-02-02T21:13:00.069Z,-1.36
2023-02-02T21:15:31.165Z,-1.41
2023-02-02T21:18:02.496Z,-1.39
2023-02-02T21:20:36.103Z,-1.37
2023-02-02T21:23:07.139Z,-1.37
2023-02-02T21:25:38.339Z,-1.49
2023-02-02T21:28:09.380Z,-1.42
2023-02-02T21:30:40.158Z,-1.37
2023-02-02T21:33:13.776Z,-1.28
2023-02-02T21:35:46.999Z,-1.20
2023-02-02T21:38:19.211Z,-1.21
2023-02-02T21:40:51.737Z,-1.42
2023-02-02T21:43:22.276Z,-1.78
2023-02-02T21:45:56.767Z,-2.04
2023-02-02T21:48:32.699Z,-2.28
2023-02-02T21:51:22.715Z,-2.53
2023-02-02T21:53:53.381Z,-2.68
2023-02-02T21:56:30.356Z,-2.76
2023-02-02T21:59:02.360Z,-2.74
2023-02-02T22:01:39.875Z,-2.68
2023-02-02T22:04:31.769Z,-2.55
2023-02-02T22:07:15.741Z,-2.48
2023-02-02T22:09:48.873Z,-2.49
2023-02-02T22:12:23.345Z,-2.60
2023-02-02T22:14:58.092Z,-2.75
2023-02-02T22:17:34.965Z,-2.67
2023-02-02T22:20:14.039Z,-2.59
2023-02-02T22:22:48.841Z,-2.47
2023-02-02T22:25:31.082Z,-2.37
2023-02-02T22:28:04.752Z,-2.56
2023-02-02T22:30:39.662Z,-2.78
2023-02-02T22:33:13.255Z,-2.95
2023-02-02T22:35:44.334Z,-3.05
2023-02-02T22:38:19.846Z,-3.17
2023-02-02T22:40:50.381Z,-3.29
2023-02-02T22:43:22.296Z,-3.36
2023-02-02T22:45:52.842Z,-3.45
2023-02-02T22:48:23.490Z,-3.58
2023-02-02T22:50:54.011Z,-3.67
2023-02-02T22:53:27.309Z,-3.73
2023-02-02T22:55:59.276Z,-3.78
2023-02-02T22:58:29.873Z,-3.83
2023-02-02T23:01:00.377Z,-3.81
2023-02-02T23:03:30.991Z,-3.64
2023-02-02T23:06:01.509Z,-3.38
2023-02-02T23:08:34.887Z,-3.23
2023-02-02T23:11:05.397Z,-3.36
2023-02-02T23:13:36.031Z,-3.52
2023-02-02T23:16:07.364Z,-3.64
2023-02-02T23:18:37.982Z,-3.71
2023-02-02T23:21:08.922Z,-3.79
2023-02-02T23:23:42.726Z,-3.85
2023-02-02T23:26:13.321Z,-3.88
2023-02-02T23:28:43.834Z,-3.89
2023-02-02T23:31:14.488Z,-3.87
2023-02-02T23:33:48.141Z,-3.87
2023-02-02T23:36:18.815Z,-3.83
2023-02-02T23:38:52.130Z,-3.63
2023-02-02T23:41:22.569Z,-3.41
2023-02-02T23:43:53.279Z,-3.04
2023-02-02T23:46:23.986Z,-2.99
2023-02-02T23:48:55.012Z,-2.92
2023-02-02T23:51:25.548Z,-3.09
2023-02-02T23:53:58.835Z,-3.24
2023-02-02T23:56:29.880Z,-3.42
2023-02-02T23:59:00.454Z,-3.54
